Time;durP1;ratioP1;P1;durP2;ratioP2;P2;SDS_P1;SDS_P2;PMS_P1;PMS_P2;Temp;Humidity;BMP_temperature;BMP_pressure;BME280_temperature;BME280_humidity;BME280_pressure;Samples;Min_cycle;Max_cycle;Signal;HPM_P1;HPM_P2
2024/01/11 00:00:17;;;;;;;19.87;12.23;;;;;;;;;;5017775;28;20395;-63
2024/01/11 00:02:42;;;;;;;20.07;12.23;;;;;;;;;;5020611;28;20754;-63
2024/01/11 00:05:07;;;;;;;22.33;13.15;;;;;;;;;;5020541;28;20387;-63
2024/01/11 00:07:33;;;;;;;20.17;11.43;;;;;;;;;;5028036;28;20406;-63
2024/01/11 00:09:58;;;;;;;19.63;12.13;;;;;;;;;;5041000;28;20901;-63
2024/01/11 00:12:23;;;;;;;19.53;12.10;;;;;;;;;;5038816;28;20766;-63
2024/01/11 00:14:49;;;;;;;19.27;11.60;;;;;;;;;;5021103;28;20530;-63
2024/01/11 00:17:15;;;;;;;19.70;12.00;;;;;;;;;;5014961;28;20403;-63
2024/01/11 00:19:40;;;;;;;20.27;12.15;;;;;;;;;;5011741;28;20419;-63
2024/01/11 00:22:06;;;;;;;18.27;10.90;;;;;;;;;;5012565;28;20445;-63
2024/01/11 00:24:31;;;;;;;18.63;11.97;;;;;;;;;;5018341;28;20822;-63
2024/01/11 00:26:56;;;;;;;18.63;11.47;;;;;;;;;;5038131;28;20405;-63
2024/01/11 00:29:22;;;;;;;18.60;11.60;;;;;;;;;;5020182;28;20395;-63
2024/01/11 00:31:47;;;;;;;18.73;11.73;;;;;;;;;;5020224;28;20398;-63
2024/01/11 00:34:12;;;;;;;18.03;11.27;;;;;;;;;;5020008;28;20502;-63
2024/01/11 00:36:38;;;;;;;21.53;12.90;;;;;;;;;;5021404;28;20798;-63
2024/01/11 00:39:03;;;;;;;20.20;11.73;;;;;;;;;;5035966;28;20401;-63
2024/01/11 00:41:28;;;;;;;19.90;11.87;;;;;;;;;;5032527;28;20392;-63
2024/01/11 00:43:54;;;;;;;19.10;11.60;;;;;;;;;;5024936;28;20837;-63
2024/01/11 00:46:19;;;;;;;18.67;11.40;;;;;;;;;;5014893;28;20470;-63
2024/01/11 00:48:44;;;;;;;18.40;10.65;;;;;;;;;;5020254;28;20396;-63
2024/01/11 00:51:10;;;;;;;20.10;12.37;;;;;;;;;;5020740;28;20461;-63
2024/01/11 00:53:35;;;;;;;23.67;13.13;;;;;;;;;;5022331;28;20391;-63
2024/01/11 00:56:00;;;;;;;23.15;13.70;;;;;;;;;;5039663;28;20807;-63
2024/01/11 00:58:26;;;;;;;20.30;12.17;;;;;;;;;;5040329;28;20443;-63
2024/01/11 01:00:52;;;;;;;20.83;12.40;;;;;;;;;;5038756;28;20428;-63
2024/01/11 01:03:18;;;;;;;21.80;13.27;;;;;;;;;;5022757;28;20443;-63
2024/01/11 01:05:43;;;;;;;18.85;11.30;;;;;;;;;;5038990;28;20455;-63
2024/01/11 01:08:09;;;;;;;18.60;11.33;;;;;;;;;;5049420;28;20425;-63
2024/01/11 01:10:34;;;;;;;19.30;11.60;;;;;;;;;;5050282;28;20397;-63
2024/01/11 01:12:59;;;;;;;17.73;11.27;;;;;;;;;;5050678;28;20393;-62
2024/01/11 01:15:25;;;;;;;19.17;11.43;;;;;;;;;;5049502;28;20893;-63
2024/01/11 01:17:50;;;;;;;19.97;11.50;;;;;;;;;;5049721;28;20413;-63
2024/01/11 01:20:15;;;;;;;19.67;11.63;;;;;;;;;;5049741;28;20475;-63
2024/01/11 01:22:40;;;;;;;18.58;11.77;;;;;;;;;;5049976;28;20390;-63
2024/01/11 01:25:06;;;;;;;18.70;10.77;;;;;;;;;;5049708;28;20390;-62
2024/01/11 01:27:31;;;;;;;17.27;11.10;;;;;;;;;;5050497;28;20745;-63
2024/01/11 01:29:56;;;;;;;20.65;11.55;;;;;;;;;;5049702;28;20401;-63
2024/01/11 01:32:22;;;;;;;17.87;11.47;;;;;;;;;;5049474;28;20481;-63
2024/01/11 01:34:47;;;;;;;20.40;12.37;;;;;;;;;;5050149;28;20466;-63
2024/01/11 01:37:12;;;;;;;20.07;12.07;;;;;;;;;;5049442;28;20406;-63
2024/01/11 01:39:38;;;;;;;19.40;12.27;;;;;;;;;;5053023;28;20408;-63
2024/01/11 01:42:04;;;;;;;20.70;12.60;;;;;;;;;;5052995;28;20394;-63
2024/01/11 01:44:29;;;;;;;21.00;12.63;;;;;;;;;;5053174;28;20397;-63
2024/01/11 01:46:54;;;;;;;20.63;12.70;;;;;;;;;;5053797;28;20943;-63
2024/01/11 01:49:22;;;;;;;19.10;11.73;;;;;;;;;;5052625;28;20393;-63
2024/01/11 01:51:47;;;;;;;27.05;15.40;;;;;;;;;;5036053;28;20393;-63
2024/01/11 01:54:12;;;;;;;21.88;12.68;;;;;;;;;;5053340;28;20459;-63
2024/01/11 01:56:38;;;;;;;22.73;13.07;;;;;;;;;;5053334;28;20463;-63
2024/01/11 01:59:03;;;;;;;20.33;12.27;;;;;;;;;;5034996;28;20409;-63
2024/01/11 02:01:28;;;;;;;20.83;12.33;;;;;;;;;;5035822;28;20417;-63
2024/01/11 02:03:53;;;;;;;22.97;13.10;;;;;;;;;;5053034;28;20472;-63
2024/01/11 02:06:19;;;;;;;24.33;14.17;;;;;;;;;;5052743;28;20885;-63
2024/01/11 02:08:44;;;;;;;19.93;12.33;;;;;;;;;;5053406;28;20408;-63
2024/01/11 02:11:10;;;;;;;18.90;11.77;;;;;;;;;;5034491;28;20409;-63
2024/01/11 02:13:35;;;;;;;21.70;12.60;;;;;;;;;;5053048;28;20402;-62
2024/01/11 02:16:01;;;;;;;18.27;11.53;;;;;;;;;;5052546;28;20413;-63
2024/01/11 02:18:26;;;;;;;18.90;11.70;;;;;;;;;;5034578;28;20409;-63
2024/01/11 02:20:51;;;;;;;19.43;11.53;;;;;;;;;;5052939;28;20508;-63
2024/01/11 02:23:17;;;;;;;19.48;12.73;;;;;;;;;;5035138;28;20955;-63
2024/01/11 02:25:42;;;;;;;19.70;12.40;;;;;;;;;;5052565;28;20404;-62
2024/01/11 02:28:08;;;;;;;18.47;11.63;;;;;;;;;;5052579;28;20912;-63
2024/01/11 02:30:33;;;;;;;20.03;12.40;;;;;;;;;;5053038;28;20398;-63
2024/01/11 02:32:59;;;;;;;19.42;11.75;;;;;;;;;;5052139;28;20472;-63
2024/01/11 02:35:24;;;;;;;19.03;12.03;;;;;;;;;;5052217;28;20382;-62
2024/01/11 02:37:49;;;;;;;19.67;11.73;;;;;;;;;;5035246;28;20402;-62
2024/01/11 02:40:15;;;;;;;19.10;11.38;;;;;;;;;;5051657;28;20407;-63
2024/01/11 02:42:40;;;;;;;19.30;12.63;;;;;;;;;;5052806;28;20397;-63
2024/01/11 02:45:05;;;;;;;18.43;11.53;;;;;;;;;;5052153;28;20452;-63
2024/01/11 02:47:31;;;;;;;17.85;11.43;;;;;;;;;;5051924;28;20458;-62
2024/01/11 02:49:56;;;;;;;20.10;12.10;;;;;;;;;;5052185;28;20408;-63
2024/01/11 02:52:23;;;;;;;20.63;11.45;;;;;;;;;;5051482;28;20394;-62
2024/01/11 02:54:48;;;;;;;19.90;11.93;;;;;;;;;;5052379;28;20401;-63
2024/01/11 02:57:13;;;;;;;17.87;11.47;;;;;;;;;;5052300;28;20471;-63
2024/01/11 02:59:39;;;;;;;19.40;11.90;;;;;;;;;;5051542;28;20404;-63
2024/01/11 03:02:04;;;;;;;18.52;11.75;;;;;;;;;;5051759;28;20416;-63
2024/01/11 03:04:30;;;;;;;18.93;12.00;;;;;;;;;;5052275;28;20405;-62
2024/01/11 03:06:55;;;;;;;18.67;11.90;;;;;;;;;;5051732;28;20405;-62
2024/01/11 03:09:21;;;;;;;20.00;12.30;;;;;;;;;;5051681;28;20861;-63
2024/01/11 03:11:46;;;;;;;20.27;12.30;;;;;;;;;;5034590;28;20405;-63
2024/01/11 03:14:11;;;;;;;19.20;12.23;;;;;;;;;;5051203;28;20784;-63
2024/01/11 03:16:39;;;;;;;19.07;12.17;;;;;;;;;;5051708;28;20393;-63
2024/01/11 03:19:04;;;;;;;19.27;12.00;;;;;;;;;;5051076;28;20566;-63
2024/01/11 03:21:30;;;;;;;21.00;12.17;;;;;;;;;;5051375;28;20469;-63
2024/01/11 03:23:55;;;;;;;20.83;12.10;;;;;;;;;;5051877;28;20961;-62
2024/01/11 03:26:20;;;;;;;20.10;12.53;;;;;;;;;;5033728;28;20390;-63
2024/01/11 03:28:45;;;;;;;20.98;12.60;;;;;;;;;;5051402;28;20852;-63
2024/01/11 03:31:11;;;;;;;20.07;12.40;;;;;;;;;;5051211;28;20402;-63
2024/01/11 03:33:36;;;;;;;21.13;12.40;;;;;;;;;;5051922;28;20397;-62
2024/01/11 03:36:08;;;;;;;19.17;12.07;;;;;;;;;;5032846;28;20896;-63
2024/01/11 03:38:33;;;;;;;21.38;13.05;;;;;;;;;;5051432;28;20394;-63
2024/01/11 03:40:59;;;;;;;18.23;11.77;;;;;;;;;;5051651;28;20393;-63
2024/01/11 03:43:24;;;;;;;22.20;12.27;;;;;;;;;;5050832;28;20439;-63
2024/01/11 03:45:50;;;;;;;20.38;12.43;;;;;;;;;;5051268;28;20404;-63
2024/01/11 03:48:15;;;;;;;18.77;11.90;;;;;;;;;;5051242;28;20436;-63
2024/01/11 03:50:40;;;;;;;20.60;11.97;;;;;;;;;;5032735;28;20403;-62
2024/01/11 03:53:05;;;;;;;19.20;11.90;;;;;;;;;;5050896;28;20486;-63
2024/01/11 03:55:31;;;;;;;19.83;12.50;;;;;;;;;;5051620;28;20881;-63
2024/01/11 03:57:56;;;;;;;20.23;12.93;;;;;;;;;;5050787;28;20429;-63
2024/01/11 04:00:21;;;;;;;19.90;12.53;;;;;;;;;;5050201;28;20401;-63
2024/01/11 04:02:47;;;;;;;20.80;12.80;;;;;;;;;;5030761;28;20387;-63
2024/01/11 04:05:12;;;;;;;20.67;12.73;;;;;;;;;;5030670;28;20396;-63
2024/01/11 04:07:37;;;;;;;20.73;13.33;;;;;;;;;;5031102;28;20785;-63
2024/01/11 04:10:02;;;;;;;20.60;12.73;;;;;;;;;;5030590;28;20410;-63
2024/01/11 04:12:28;;;;;;;22.20;13.90;;;;;;;;;;5031136;28;20473;-63
2024/01/11 04:14:53;;;;;;;21.93;13.87;;;;;;;;;;5031357;28;20754;-63
2024/01/11 04:17:18;;;;;;;21.48;13.65;;;;;;;;;;5048731;28;20904;-63
2024/01/11 04:19:45;;;;;;;22.70;13.40;;;;;;;;;;5049664;28;21381;-63
2024/01/11 04:22:11;;;;;;;21.10;13.47;;;;;;;;;;5050543;28;20983;-63
2024/01/11 04:24:36;;;;;;;21.77;13.60;;;;;;;;;;5050463;28;20411;-63
2024/01/11 04:27:01;;;;;;;22.17;13.32;;;;;;;;;;5027462;28;20419;-63
2024/01/11 04:29:27;;;;;;;22.93;13.67;;;;;;;;;;5012859;28;20396;-63
2024/01/11 04:31:52;;;;;;;22.27;14.17;;;;;;;;;;5018124;28;20395;-63
2024/01/11 04:34:17;;;;;;;22.17;14.05;;;;;;;;;;5021818;28;20399;-63
2024/01/11 04:36:42;;;;;;;23.03;14.50;;;;;;;;;;5040336;28;20409;-63
2024/01/11 04:39:08;;;;;;;22.83;13.67;;;;;;;;;;5039376;28;20410;-63
2024/01/11 04:41:34;;;;;;;23.63;14.30;;;;;;;;;;5040326;28;20896;-63
2024/01/11 04:44:00;;;;;;;23.05;14.02;;;;;;;;;;5029439;28;20873;-63
2024/01/11 04:46:25;;;;;;;22.50;14.80;;;;;;;;;;5017260;28;20460;-63
2024/01/11 04:48:50;;;;;;;23.30;14.70;;;;;;;;;;5013387;28;20410;-63
2024/01/11 04:51:16;;;;;;;25.77;15.77;;;;;;;;;;5012114;28;20418;-63
2024/01/11 04:53:41;;;;;;;23.83;14.63;;;;;;;;;;5015200;28;20893;-62
2024/01/11 04:56:07;;;;;;;24.10;15.03;;;;;;;;;;5020258;28;20601;-63
2024/01/11 04:58:33;;;;;;;24.35;15.00;;;;;;;;;;5020837;28;20402;-63
2024/01/11 05:00:58;;;;;;;23.83;14.83;;;;;;;;;;5026147;28;20414;-63
2024/01/11 05:03:23;;;;;;;24.23;15.23;;;;;;;;;;5020298;28;20391;-63
2024/01/11 05:05:48;;;;;;;22.90;15.00;;;;;;;;;;5021196;28;20398;-63
2024/01/11 05:08:14;;;;;;;25.13;16.13;;;;;;;;;;5038394;28;20393;-63
2024/01/11 05:10:39;;;;;;;25.02;16.15;;;;;;;;;;5032633;28;20609;-63
2024/01/11 05:13:04;;;;;;;24.93;15.77;;;;;;;;;;5033254;28;20944;-63
2024/01/11 05:15:30;;;;;;;23.63;15.37;;;;;;;;;;5033101;28;20737;-62
2024/01/11 05:17:56;;;;;;;23.03;15.27;;;;;;;;;;5024011;28;20778;-63
2024/01/11 05:20:21;;;;;;;25.15;16.63;;;;;;;;;;5043086;28;20409;-63
2024/01/11 05:22:46;;;;;;;23.97;16.20;;;;;;;;;;5043327;28;20398;-63
2024/01/11 05:25:12;;;;;;;25.23;16.83;;;;;;;;;;5043522;28;20412;-63
2024/01/11 05:27:37;;;;;;;25.08;16.23;;;;;;;;;;5048772;28;20389;-62
2024/01/11 05:30:02;;;;;;;23.83;15.60;;;;;;;;;;5052845;28;20382;-63
2024/01/11 05:32:27;;;;;;;25.37;16.37;;;;;;;;;;5054213;28;20397;-63
2024/01/11 05:34:53;;;;;;;24.73;16.33;;;;;;;;;;5044399;28;20954;-62
2024/01/11 05:37:20;;;;;;;25.60;16.80;;;;;;;;;;5033316;28;20403;-62
2024/01/11 05:39:45;;;;;;;25.00;16.10;;;;;;;;;;5033900;28;20949;-62
2024/01/11 05:42:11;;;;;;;25.47;16.57;;;;;;;;;;5031480;28;20418;-63
2024/01/11 05:44:36;;;;;;;23.90;15.57;;;;;;;;;;5025022;28;20402;-63
2024/01/11 05:47:01;;;;;;;24.50;16.27;;;;;;;;;;5020256;28;20392;-63
2024/01/11 05:49:27;;;;;;;26.38;16.88;;;;;;;;;;5034515;28;20936;-63
2024/01/11 05:51:52;;;;;;;24.37;15.27;;;;;;;;;;5034973;28;20421;-62
2024/01/11 05:54:17;;;;;;;24.93;16.43;;;;;;;;;;5038331;28;20405;-63
2024/01/11 05:56:42;;;;;;;22.40;15.35;;;;;;;;;;5042755;28;20405;-63
2024/01/11 05:59:08;;;;;;;24.60;15.83;;;;;;;;;;5037044;28;20411;-63
2024/01/11 06:01:33;;;;;;;25.37;16.40;;;;;;;;;;5033269;28;20395;-62
2024/01/11 06:03:58;;;;;;;25.10;16.50;;;;;;;;;;5023250;28;20450;-63
2024/01/11 06:06:24;;;;;;;24.27;16.17;;;;;;;;;;5023470;28;20889;-63
2024/01/11 06:08:49;;;;;;;26.20;17.07;;;;;;;;;;5022836;28;20434;-63
2024/01/11 06:11:14;;;;;;;22.70;15.63;;;;;;;;;;5014595;28;20475;-62
2024/01/11 06:13:41;;;;;;;24.73;16.70;;;;;;;;;;5034733;28;20911;-62
2024/01/11 06:16:07;;;;;;;24.27;15.85;;;;;;;;;;5026469;28;20490;-63
2024/01/11 06:18:32;;;;;;;26.25;17.23;;;;;;;;;;5022115;28;20486;-63
2024/01/11 06:20:57;;;;;;;27.03;17.57;;;;;;;;;;5023509;28;20472;-62
2024/01/11 06:23:24;;;;;;;27.90;17.43;;;;;;;;;;5021835;28;20406;-63
2024/01/11 06:25:49;;;;;;;27.40;18.00;;;;;;;;;;5042109;28;20972;-62
2024/01/11 06:28:15;;;;;;;27.67;16.97;;;;;;;;;;5041755;28;20488;-62
2024/01/11 06:30:40;;;;;;;26.37;17.10;;;;;;;;;;5042450;28;20397;-62
2024/01/11 06:33:05;;;;;;;29.08;18.88;;;;;;;;;;5048830;28;20472;-63
2024/01/11 06:35:31;;;;;;;25.97;17.43;;;;;;;;;;5038456;28;20513;-63
2024/01/11 06:37:56;;;;;;;27.13;17.90;;;;;;;;;;5032101;28;20423;-63
2024/01/11 06:40:21;;;;;;;27.88;18.48;;;;;;;;;;5032045;28;20485;-63
2024/01/11 06:42:46;;;;;;;27.80;18.10;;;;;;;;;;5015048;28;20396;-62
2024/01/11 06:45:12;;;;;;;26.77;18.37;;;;;;;;;;5044223;28;20402;-61
2024/01/11 06:47:37;;;;;;;26.63;17.48;;;;;;;;;;5051379;28;20815;-61
2024/01/11 06:50:03;;;;;;;25.77;17.80;;;;;;;;;;5051651;28;20421;-62
2024/01/11 06:52:28;;;;;;;30.10;19.10;;;;;;;;;;5051341;28;20397;-60
2024/01/11 06:54:53;;;;;;;28.73;19.23;;;;;;;;;;5051393;28;20410;-61
2024/01/11 06:57:19;;;;;;;26.67;17.97;;;;;;;;;;5051355;28;20950;-61
2024/01/11 06:59:46;;;;;;;28.15;18.15;;;;;;;;;;5051277;28;20409;-60
2024/01/11 07:02:11;;;;;;;27.33;18.00;;;;;;;;;;5051665;28;20748;-62
2024/01/11 07:04:36;;;;;;;29.97;19.77;;;;;;;;;;5052375;28;20389;-61
2024/01/11 07:07:04;;;;;;;28.60;18.73;;;;;;;;;;5051016;28;20404;-61
2024/01/11 07:09:29;;;;;;;26.33;17.60;;;;;;;;;;5051429;28;20401;-61
2024/01/11 07:11:55;;;;;;;27.70;18.33;;;;;;;;;;5051023;28;20406;-61
2024/01/11 07:14:20;;;;;;;28.80;19.30;;;;;;;;;;5050392;28;20393;-61
2024/01/11 07:16:45;;;;;;;29.07;18.63;;;;;;;;;;5051625;28;20395;-61
2024/01/11 07:19:11;;;;;;;30.27;19.13;;;;;;;;;;5050814;28;20424;-61
2024/01/11 07:21:36;;;;;;;28.40;18.77;;;;;;;;;;5050386;28;20397;-61
2024/01/11 07:24:01;;;;;;;31.57;20.57;;;;;;;;;;5050558;28;20523;-62
2024/01/11 07:26:27;;;;;;;32.58;20.38;;;;;;;;;;5051652;28;20405;-61
2024/01/11 07:28:54;;;;;;;27.77;18.90;;;;;;;;;;5050473;28;20737;-62
2024/01/11 07:31:19;;;;;;;28.07;18.60;;;;;;;;;;5051579;28;20765;-61
2024/01/11 07:33:45;;;;;;;29.03;19.10;;;;;;;;;;5051021;28;20394;-61
2024/01/11 07:36:10;;;;;;;27.40;18.53;;;;;;;;;;5050173;28;20484;-62
2024/01/11 07:38:36;;;;;;;28.33;18.77;;;;;;;;;;5050973;28;20458;-61
2024/01/11 07:41:01;;;;;;;29.57;19.57;;;;;;;;;;5049615;28;20486;-62
2024/01/11 07:43:28;;;;;;;25.40;18.33;;;;;;;;;;5050715;28;20394;-61
2024/01/11 07:45:54;;;;;;;29.63;19.07;;;;;;;;;;5049597;28;20493;-61
2024/01/11 07:48:19;;;;;;;27.07;17.90;;;;;;;;;;5050216;28;20405;-61
2024/01/11 07:50:44;;;;;;;27.93;18.70;;;;;;;;;;5051493;28;20424;-61
2024/01/11 07:53:09;;;;;;;29.00;19.20;;;;;;;;;;5051043;28;20896;-61
2024/01/11 07:55:35;;;;;;;27.73;18.53;;;;;;;;;;5050702;28;20837;-61
2024/01/11 07:58:00;;;;;;;27.90;18.80;;;;;;;;;;5051187;28;20429;-63
2024/01/11 08:00:26;;;;;;;28.05;19.15;;;;;;;;;;5051191;28;20499;-62
2024/01/11 08:02:51;;;;;;;29.20;19.70;;;;;;;;;;5050897;28;20404;-62
2024/01/11 08:05:16;;;;;;;28.63;19.17;;;;;;;;;;5050562;28;20477;-61
2024/01/11 08:07:42;;;;;;;30.80;20.50;;;;;;;;;;5051485;28;20885;-62
2024/01/11 08:10:09;;;;;;;29.65;20.73;;;;;;;;;;5049802;28;20405;-62
2024/01/11 08:12:34;;;;;;;29.83;20.83;;;;;;;;;;5051053;28;20424;-61
2024/01/11 08:14:59;;;;;;;28.47;20.03;;;;;;;;;;5051007;28;20421;-61
2024/01/11 08:17:25;;;;;;;29.83;20.00;;;;;;;;;;5049863;28;20389;-62
2024/01/11 08:19:50;;;;;;;29.50;20.77;;;;;;;;;;5050497;28;20909;-61
2024/01/11 08:22:15;;;;;;;30.87;21.10;;;;;;;;;;5050566;28;20411;-63
2024/01/11 08:24:41;;;;;;;31.75;21.15;;;;;;;;;;5032505;28;20784;-61
2024/01/11 08:27:06;;;;;;;32.17;21.97;;;;;;;;;;5050463;28;20389;-62
2024/01/11 08:29:32;;;;;;;32.70;21.40;;;;;;;;;;5050800;28;20397;-61
2024/01/11 08:31:57;;;;;;;32.80;22.67;;;;;;;;;;5050208;28;20447;-61
2024/01/11 08:34:23;;;;;;;33.88;22.70;;;;;;;;;;5050304;28;20443;-62
2024/01/11 08:36:48;;;;;;;35.07;23.80;;;;;;;;;;5033359;28;20382;-62
2024/01/11 08:39:15;;;;;;;34.50;23.27;;;;;;;;;;5049056;28;20409;-61
2024/01/11 08:41:40;;;;;;;38.65;26.63;;;;;;;;;;5050556;28;20469;-62
2024/01/11 08:44:05;;;;;;;34.97;24.13;;;;;;;;;;5049465;28;20496;-62
2024/01/11 08:46:31;;;;;;;35.75;23.75;;;;;;;;;;5050769;28;20734;-62
2024/01/11 08:48:56;;;;;;;40.83;25.95;;;;;;;;;;5054591;28;20408;-61
2024/01/11 08:51:22;;;;;;;37.93;24.73;;;;;;;;;;5053925;28;20401;-62
2024/01/11 08:53:47;;;;;;;35.37;23.27;;;;;;;;;;5054702;28;20876;-61
2024/01/11 08:56:13;;;;;;;38.33;24.80;;;;;;;;;;5054135;28;20385;-61
2024/01/11 08:58:39;;;;;;;34.80;23.95;;;;;;;;;;5054342;28;20397;-61
2024/01/11 09:01:05;;;;;;;35.85;23.80;;;;;;;;;;5053608;28;20769;-61
2024/01/11 09:03:30;;;;;;;39.73;24.67;;;;;;;;;;5054589;28;20879;-61
2024/01/11 09:05:57;;;;;;;37.15;24.92;;;;;;;;;;5054025;28;20443;-62
2024/01/11 09:08:22;;;;;;;36.28;24.00;;;;;;;;;;5053783;28;20714;-61
2024/01/11 09:10:47;;;;;;;37.90;24.30;;;;;;;;;;5054451;28;20416;-62
2024/01/11 09:13:13;;;;;;;39.10;25.67;;;;;;;;;;5053433;28;20484;-61
2024/01/11 09:15:38;;;;;;;33.87;23.57;;;;;;;;;;5053931;28;20394;-61
2024/01/11 09:18:03;;;;;;;38.53;25.37;;;;;;;;;;5053781;28;20397;-62
2024/01/11 09:20:29;;;;;;;36.27;24.03;;;;;;;;;;5053324;28;20524;-61
2024/01/11 09:22:54;;;;;;;37.20;23.83;;;;;;;;;;5054393;28;20397;-62
2024/01/11 09:25:20;;;;;;;35.93;24.40;;;;;;;;;;5053695;28;21986;-61
2024/01/11 09:27:45;;;;;;;33.57;23.50;;;;;;;;;;5053420;28;20409;-62
2024/01/11 09:30:10;;;;;;;33.78;23.45;;;;;;;;;;5053523;28;20890;-62
2024/01/11 09:32:36;;;;;;;35.43;24.87;;;;;;;;;;5054270;28;20405;-61
2024/01/11 09:35:02;;;;;;;36.43;24.53;;;;;;;;;;5052703;28;20393;-63
2024/01/11 09:37:27;;;;;;;36.63;25.02;;;;;;;;;;5054203;28;20389;-62
2024/01/11 09:39:53;;;;;;;37.07;25.50;;;;;;;;;;5053948;28;20405;-62
2024/01/11 09:42:18;;;;;;;39.27;29.57;;;;;;;;;;5052487;28;20385;-62
2024/01/11 09:44:43;;;;;;;33.27;23.50;;;;;;;;;;5053778;28;20385;-62
2024/01/11 09:47:10;;;;;;;34.27;24.63;;;;;;;;;;5053207;28;20397;-62
2024/01/11 09:49:35;;;;;;;37.90;25.48;;;;;;;;;;5053021;28;20393;-62
2024/01/11 09:52:01;;;;;;;30.00;21.73;;;;;;;;;;5053215;28;20397;-63
2024/01/11 09:54:26;;;;;;;32.37;23.17;;;;;;;;;;5035509;28;20439;-62
2024/01/11 09:56:52;;;;;;;31.03;22.00;;;;;;;;;;5053427;28;20730;-62
2024/01/11 09:59:18;;;;;;;32.60;22.87;;;;;;;;;;5034193;28;20467;-62
2024/01/11 10:01:43;;;;;;;29.23;22.48;;;;;;;;;;5034981;28;20463;-62
2024/01/11 10:04:09;;;;;;;30.88;21.90;;;;;;;;;;5035191;28;20389;-65
2024/01/11 10:06:35;;;;;;;29.25;21.02;;;;;;;;;;5053502;28;20393;-64
2024/01/11 10:09:00;;;;;;;30.47;22.20;;;;;;;;;;5034304;28;20777;-65
2024/01/11 10:11:26;;;;;;;29.03;21.67;;;;;;;;;;5053275;28;20401;-65
2024/01/11 10:13:57;;;;;;;29.67;21.73;;;;;;;;;;5053462;28;20408;-63
2024/01/11 10:16:24;;;;;;;36.63;26.52;;;;;;;;;;5051764;28;20397;-64
2024/01/11 10:18:49;;;;;;;34.17;23.80;;;;;;;;;;5052201;28;20414;-64
2024/01/11 10:21:14;;;;;;;48.20;31.77;;;;;;;;;;5052130;28;20915;-62
2024/01/11 10:23:40;;;;;;;35.13;24.67;;;;;;;;;;5052254;28;20482;-62
2024/01/11 10:26:07;;;;;;;29.87;19.97;;;;;;;;;;5046376;28;20915;-63
2024/01/11 10:28:36;;;;;;;33.20;23.67;;;;;;;;;;5052147;28;20402;-62
2024/01/11 10:31:01;;;;;;;29.80;20.40;;;;;;;;;;5051399;28;20402;-63
2024/01/11 10:33:26;;;;;;;30.03;20.67;;;;;;;;;;5052823;28;20398;-62
2024/01/11 10:35:52;;;;;;;24.70;17.63;;;;;;;;;;5052403;28;20460;-62
2024/01/11 10:38:17;;;;;;;23.10;15.67;;;;;;;;;;5033730;28;20401;-62
2024/01/11 10:40:43;;;;;;;24.08;16.92;;;;;;;;;;5050163;28;21007;-62
2024/01/11 10:43:16;;;;;;;20.93;13.73;;;;;;;;;;5051352;28;20451;-62
2024/01/11 10:45:42;;;;;;;25.77;16.93;;;;;;;;;;5051303;28;20405;-62
2024/01/11 10:48:08;;;;;;;25.10;16.07;;;;;;;;;;5064677;28;20397;-62
2024/01/11 10:50:35;;;;;;;31.30;21.23;;;;;;;;;;5052271;28;20499;-62
2024/01/11 10:53:03;;;;;;;22.90;14.10;;;;;;;;;;5051985;28;20417;-63
2024/01/11 10:55:28;;;;;;;21.30;13.65;;;;;;;;;;5067515;28;20765;-62
2024/01/11 10:57:54;;;;;;;25.77;14.65;;;;;;;;;;5051079;28;20405;-62
2024/01/11 11:00:19;;;;;;;26.67;15.43;;;;;;;;;;5033120;28;20398;-62
2024/01/11 11:02:44;;;;;;;26.47;15.10;;;;;;;;;;5052421;28;20390;-61
2024/01/11 11:05:09;;;;;;;27.50;15.70;;;;;;;;;;5033605;28;20390;-62
2024/01/11 11:07:36;;;;;;;25.87;15.20;;;;;;;;;;5052167;28;20410;-61
2024/01/11 11:10:01;;;;;;;27.88;16.20;;;;;;;;;;5033553;28;20397;-62
2024/01/11 11:12:27;;;;;;;23.80;14.27;;;;;;;;;;5033210;28;20416;-62
2024/01/11 11:14:52;;;;;;;28.47;14.87;;;;;;;;;;5033936;28;20399;-62
2024/01/11 11:17:17;;;;;;;33.13;16.63;;;;;;;;;;5051552;28;20402;-62
2024/01/11 11:19:43;;;;;;;28.63;15.57;;;;;;;;;;5050655;28;20397;-61
2024/01/11 11:22:08;;;;;;;29.27;15.80;;;;;;;;;;5056139;28;20509;-61
2024/01/11 11:24:34;;;;;;;33.50;16.87;;;;;;;;;;5058726;28;20435;-61
2024/01/11 11:26:59;;;;;;;32.13;16.15;;;;;;;;;;5050121;28;20958;-61
2024/01/11 11:29:24;;;;;;;41.03;18.50;;;;;;;;;;5051156;28;20397;-61
2024/01/11 11:31:53;;;;;;;122.73;73.27;;;;;;;;;;5051122;28;20455;-61
2024/01/11 11:34:20;;;;;;;52.65;31.23;;;;;;;;;;5049301;28;20433;-62
2024/01/11 11:36:46;;;;;;;37.50;20.90;;;;;;;;;;5051040;28;20409;-61
2024/01/11 11:39:11;;;;;;;38.83;20.45;;;;;;;;;;5051178;28;20481;-62
2024/01/11 11:41:38;;;;;;;35.17;17.70;;;;;;;;;;5050526;28;20489;-61
2024/01/11 11:44:04;;;;;;;31.67;18.40;;;;;;;;;;5059801;28;20950;-62
2024/01/11 11:46:29;;;;;;;31.75;17.25;;;;;;;;;;5033252;28;20389;-62
2024/01/11 11:48:55;;;;;;;33.03;16.60;;;;;;;;;;5059387;28;20531;-62
2024/01/11 11:51:20;;;;;;;31.50;18.30;;;;;;;;;;5050926;28;20758;-62
2024/01/11 11:53:47;;;;;;;38.97;26.30;;;;;;;;;;5051444;28;20466;-62
2024/01/11 11:56:14;;;;;;;30.98;16.27;;;;;;;;;;5049620;28;20408;-62
2024/01/11 11:58:40;;;;;;;28.37;16.27;;;;;;;;;;5051088;28;20400;-62
2024/01/11 12:01:05;;;;;;;27.93;16.03;;;;;;;;;;5049096;28;20409;-62
2024/01/11 12:03:32;;;;;;;31.80;16.90;;;;;;;;;;5050924;28;20385;-61
2024/01/11 12:05:57;;;;;;;29.08;16.40;;;;;;;;;;5051311;28;20417;-61
2024/01/11 12:08:23;;;;;;;32.97;17.63;;;;;;;;;;5049675;28;20424;-62
2024/01/11 12:10:48;;;;;;;33.20;17.67;;;;;;;;;;5050526;28;20398;-62
2024/01/11 12:13:13;;;;;;;29.93;16.63;;;;;;;;;;5050671;28;20448;-62
2024/01/11 12:15:38;;;;;;;30.03;17.03;;;;;;;;;;5050401;28;20416;-62
2024/01/11 12:18:04;;;;;;;34.60;17.80;;;;;;;;;;5049451;28;20420;-62
2024/01/11 12:20:29;;;;;;;31.43;17.37;;;;;;;;;;5050163;28;20440;-61
2024/01/11 12:22:54;;;;;;;33.17;17.63;;;;;;;;;;5032010;28;20429;-61
2024/01/11 12:25:20;;;;;;;29.03;16.47;;;;;;;;;;5050609;28;20469;-61
2024/01/11 12:27:46;;;;;;;34.15;17.88;;;;;;;;;;5032417;28;20413;-61
2024/01/11 12:30:14;;;;;;;31.77;16.90;;;;;;;;;;5049110;28;20409;-62
2024/01/11 12:32:39;;;;;;;30.35;16.63;;;;;;;;;;5050235;28;20417;-61
2024/01/11 12:35:05;;;;;;;29.20;16.63;;;;;;;;;;5050252;28;20440;-62
2024/01/11 12:37:30;;;;;;;33.90;17.20;;;;;;;;;;5030833;28;20397;-63
2024/01/11 12:39:57;;;;;;;30.57;17.37;;;;;;;;;;5049736;28;20472;-63
2024/01/11 12:42:23;;;;;;;28.17;15.98;;;;;;;;;;5050102;28;20443;-64
2024/01/11 12:44:50;;;;;;;33.58;16.85;;;;;;;;;;5072900;28;20401;-63
2024/01/11 12:47:15;;;;;;;33.70;16.55;;;;;;;;;;5047987;28;20413;-63
2024/01/11 12:49:45;;;;;;;32.57;16.53;;;;;;;;;;5032747;28;20400;-63
2024/01/11 12:52:16;;;;;;;34.75;17.35;;;;;;;;;;5049271;28;20401;-63
2024/01/11 12:54:41;;;;;;;29.53;16.33;;;;;;;;;;5050872;28;20397;-63
2024/01/11 12:57:07;;;;;;;30.70;16.03;;;;;;;;;;5032361;28;20416;-62
2024/01/11 12:59:32;;;;;;;32.47;17.37;;;;;;;;;;5048542;28;20410;-63
2024/01/11 13:01:59;;;;;;;32.45;17.35;;;;;;;;;;5052499;28;20893;-63
2024/01/11 13:04:25;;;;;;;33.35;17.98;;;;;;;;;;5031946;28;20911;-63
2024/01/11 13:06:50;;;;;;;29.77;17.00;;;;;;;;;;5049502;28;20393;-64
2024/01/11 13:09:15;;;;;;;30.03;17.13;;;;;;;;;;5049281;28;20480;-64
2024/01/11 13:11:41;;;;;;;31.80;17.13;;;;;;;;;;5049485;28;20413;-64
2024/01/11 13:14:11;;;;;;;29.05;16.30;;;;;;;;;;5032129;28;20868;-64
2024/01/11 13:16:36;;;;;;;29.13;17.00;;;;;;;;;;5050136;28;20409;-64
2024/01/11 13:19:02;;;;;;;30.93;17.90;;;;;;;;;;5048939;28;20440;-64
2024/01/11 13:21:28;;;;;;;30.70;17.33;;;;;;;;;;5050118;28;20765;-64
2024/01/11 13:23:53;;;;;;;30.58;16.90;;;;;;;;;;5032500;28;20409;-64
2024/01/11 13:26:19;;;;;;;31.90;18.33;;;;;;;;;;5048733;28;20443;-64
2024/01/11 13:28:44;;;;;;;30.75;17.85;;;;;;;;;;5050270;28;20425;-64
2024/01/11 13:31:10;;;;;;;35.87;17.80;;;;;;;;;;5049787;28;20480;-64
2024/01/11 13:33:35;;;;;;;34.07;18.10;;;;;;;;;;5050815;28;20401;-64
2024/01/11 13:36:01;;;;;;;31.27;17.60;;;;;;;;;;5053744;28;20463;-65
2024/01/11 13:38:26;;;;;;;30.43;17.47;;;;;;;;;;5053992;28;20394;-64
2024/01/11 13:40:52;;;;;;;29.37;16.57;;;;;;;;;;5052821;28;20488;-64
2024/01/11 13:43:18;;;;;;;32.72;17.75;;;;;;;;;;5053608;28;20539;-64
2024/01/11 13:45:44;;;;;;;29.55;16.75;;;;;;;;;;5053638;28;20885;-64
2024/01/11 13:48:09;;;;;;;29.25;17.20;;;;;;;;;;5052209;28;20900;-64
2024/01/11 13:50:34;;;;;;;31.25;17.05;;;;;;;;;;5053728;28;20397;-64
2024/01/11 13:53:00;;;;;;;32.97;17.90;;;;;;;;;;5053750;28;20487;-64
2024/01/11 13:55:25;;;;;;;32.60;18.37;;;;;;;;;;5052386;28;20396;-64
2024/01/11 13:57:51;;;;;;;32.07;17.90;;;;;;;;;;5053590;28;20409;-64
2024/01/11 14:00:18;;;;;;;32.25;18.13;;;;;;;;;;5052950;28;20417;-64
2024/01/11 14:02:43;;;;;;;34.88;18.48;;;;;;;;;;5052727;28;20451;-64
2024/01/11 14:05:13;;;;;;;33.90;18.40;;;;;;;;;;5053048;28;20881;-64